Data for 09/26/2010

Time Sea-Level Adjusted Pressure Absolute Pressure Temperature Relative Humidity Dew Point   
(mb) (inHg) (mb) (inHg) (C) (F) (%) (C) (F)
00:05 1022 30.18 852 25.16 15.9 60.7 44 3.8 38.9
00:10 1022 30.18 852 25.16 15.8 60.4 44 3.8 38.8
00:15 1022 30.18 852 25.16 15.6 60.1 43 3.1 37.6
00:20 1022 30.18 851 25.13 15.8 60.4 42 3 37.3
00:25 1022 30.18 851 25.13 16 60.9 43 3.5 38.3
00:30 1022 30.18 851 25.13 15.8 60.5 42 3 37.4
00:35 1022 30.18 851 25.13 15.7 60.3 42 2.8 37.1
00:40 1022 30.18 851 25.13 15.7 60.3 42 2.9 37.3
00:45 1022 30.18 851 25.13 15.7 60.2 43 3.1 37.6
00:50 1022 30.18 851 25.13 15.2 59.4 47 4 39.2
00:55 1022 30.18 851 25.13 14.8 58.6 44 2.8 37
01:00 1022 30.18 851 25.13 15 59 47 4 39.2
01:05 1022 30.18 851 25.13 15 59 44 3 37.3
01:10 1022 30.18 851 25.13 15.2 59.3 42 2.5 36.5
01:15 1022 30.18 851 25.13 15.4 59.8 40 2.1 35.8
01:20 1022 30.18 851 25.13 15.6 60 40 2.1 35.7
01:25 1022 30.18 851 25.13 15.7 60.2 39 2 35.5
01:30 1022 30.18 851 25.13 15.5 59.9 43 3.1 37.6
01:35 1022 30.18 851 25.13 15.1 59.2 42 2.5 36.5
01:40 1022 30.18 851 25.13 15 58.9 43 2.4 36.4
01:45 1022 30.18 851 25.13 14.7 58.4 43 2.2 36
01:50 1022 30.18 851 25.13 14.8 58.6 41 1.7 35
01:55 1022 30.18 851 25.13 15.3 59.5 40 1.7 35.1
02:00 1022 30.18 851 25.13 15.5 59.8 39 1.8 35.2
02:05 1022 30.18 851 25.13 15.3 59.5 39 1.7 35
02:10 1022 30.18 851 25.13 15.2 59.4 41 2.1 35.7
02:15 1022 30.18 851 25.13 15.2 59.3 40 1.6 34.9
02:20 1022 30.18 851 25.13 15.4 59.8 38 1.3 34.3
02:25 1022 30.18 851 25.13 15.5 59.9 38 1.4 34.6
02:30 1022 30.18 851 25.13 15.5 59.8 39 1.6 34.8
02:35 1021 30.15 851 25.13 15.2 59.4 40 1.8 35.2
02:40 1021 30.15 851 25.13 15 59 40 1.5 34.7
02:45 1021 30.15 851 25.13 15.1 59.1 40 1.5 34.8
02:50 1021 30.15 851 25.13 15 59 41 1.9 35.3
02:55 1021 30.15 851 25.13 14.6 58.3 41 1.6 34.9
03:00 1021 30.15 851 25.13 14.3 57.7 42 1.6 34.9
03:05 1021 30.15 851 25.13 14.1 57.5 42 1.6 34.8
03:10 1021 30.15 851 25.13 14.2 57.6 42 1.6 34.9
03:15 1021 30.15 851 25.13 14.1 57.3 43 1.7 35
03:20 1021 30.15 851 25.13 14 57.1 42 1.4 34.6
03:25 1021 30.15 851 25.13 14 57.2 41 1.1 34.1
03:30 1021 30.15 850 25.1 14.5 58.2 40 1.2 34.2
03:35 1021 30.15 850 25.1 14.3 57.7 42 1.5 34.7
03:40 1021 30.15 850 25.1 14.2 57.6 39 0.7 33.3
03:45 1021 30.15 850 25.1 14.8 58.6 40 1.2 34.2
03:50 1021 30.15 850 25.1 14.7 58.5 40 1.2 34.2
03:55 1021 30.15 850 25.1 14.3 57.8 40 1.1 34.1
04:00 1021 30.15 850 25.1 14.7 58.4 38 0.5 32.9
04:05 1021 30.15 850 25.1 14.7 58.5 37 0.4 32.7
04:10 1021 30.15 850 25.1 14.5 58.1 41 1.4 34.5
04:15 1021 30.15 850 25.1 13.9 57 43 1.5 34.8
04:20 1021 30.15 850 25.1 13.8 56.8 41 0.7 33.3
04:25 1021 30.15 850 25.1 13.9 57 42 1.4 34.6
04:30 1021 30.15 850 25.1 13.2 55.7 45 1.5 34.7
04:35 1021 30.15 850 25.1 13 55.3 43 0.8 33.5
04:40 1021 30.15 850 25.1 13.3 55.9 44 1.3 34.4
04:45 1021 30.15 850 25.1 13.7 56.6 39 0.1 32.1
04:50 1021 30.15 850 25.1 13.9 57 41 0.9 33.7
04:55 1021 30.15 850 25.1 13.5 56.3 42 0.8 33.5
05:00 1021 30.15 850 25.1 13.5 56.2 42 0.8 33.5
05:05 1021 30.15 850 25.1 13.6 56.6 40 0.3 32.6
05:10 1021 30.15 850 25.1 13.9 57 40 0.6 33.1
05:15 1021 30.15 850 25.1 13.9 57 42 1.2 34.1
05:20 1021 30.15 850 25.1 13.4 56.1 44 1.3 34.4
05:25 1021 30.15 850 25.1 12.9 55.2 43 0.8 33.5
05:30 1021 30.15 850 25.1 12.8 55 45 1.1 34.1
05:35 1021 30.15 850 25.1 12.8 55.1 42 0.3 32.6
05:40 1021 30.15 850 25.1 13.2 55.7 43 0.8 33.5
05:45 1021 30.15 850 25.1 12.8 55 45 1.1 33.9
05:50 1021 30.15 850 25.1 12.6 54.7 45 0.9 33.6
05:55 1021 30.15 850 25.1 12.6 54.7 45 1 33.8
06:00 1021 30.15 850 25.1 12.5 54.6 45 1 33.7
06:05 1021 30.15 850 25.1 12.4 54.3 46 1.1 34
06:10 1021 30.15 850 25.1 12.2 53.9 47 1.1 34.1
06:15 1021 30.15 850 25.1 12.1 53.8 46 1 33.9
06:20 1021 30.15 850 25.1 12.2 53.9 47 1.2 34.1
06:25 1021 30.15 850 25.1 12.3 54.1 47 1.2 34.2
06:30 1021 30.15 850 25.1 12.2 54 46 1 33.8
06:35 1021 30.15 850 25.1 12.5 54.5 45 0.9 33.7
06:40 1021 30.15 850 25.1 12.6 54.7 45 1 33.8
06:45 1021 30.15 850 25.1 12.7 54.9 43 0.6 33.1
06:50 1021 30.15 850 25.1 13.2 55.7 42 0.7 33.3
06:55 1021 30.15 850 25.1 13.3 56 42 0.7 33.3
07:00 1021 30.15 850 25.1 13.2 55.7 43 1 33.8
07:05 1021 30.15 850 25.1 12.7 54.9 45 1.3 34.3
07:10 1021 30.15 850 25.1 12.2 53.9 47 1.3 34.4
07:15 1021 30.15 850 25.1 12 53.5 48 1.2 34.2
07:20 1021 30.15 850 25.1 12.1 53.8 46 1 33.8
07:25 1021 30.15 850 25.1 12.4 54.3 45 0.8 33.5
07:30 1021 30.15 850 25.1 12.7 54.8 45 1 33.8
07:35 1021 30.15 850 25.1 12.8 55 45 1.1 33.9
07:40 1021 30.15 850 25.1 12.8 55.1 44 1 33.8
07:45 1021 30.15 850 25.1 12.9 55.3 45 1.3 34.3
07:50 1021 30.15 850 25.1 12.9 55.2 44 1 33.8
07:55 1021 30.15 850 25.1 13.2 55.7 44 1.1 34
08:00 1021 30.15 850 25.1 13.5 56.3 43 1.1 34
08:05 1021 30.15 850 25.1 13.6 56.6 42 0.9 33.7
08:10 1021 30.15 850 25.1 13.9 57.1 41 1.1 34
08:15 1021 30.15 850 25.1 14 57.1 42 1.5 34.6
08:20 1021 30.15 850 25.1 14 57.1 44 2 35.6
08:25 1021 30.15 850 25.1 14.2 57.5 43 1.9 35.5
08:30 1021 30.15 850 25.1 14.4 57.8 45 2.5 36.5
08:35 1021 30.15 850 25.1 14.5 58 44 2.5 36.5
08:40 1021 30.15 850 25.1 14.5 58.1 44 2.5 36.6
08:45 1021 30.15 850 25.1 14.9 58.8 41 1.9 35.5
08:50 1021 30.15 850 25.1 15.5 59.8 40 2.1 35.8
08:55 1021 30.15 850 25.1 15.9 60.7 37 1.5 34.6
09:00 1021 30.15 850 25.1 16 60.7 41 2.9 37.2
09:05 1021 30.15 850 25.1 15.8 60.5 42 3 37.5
09:10 1021 30.15 850 25.1 15.9 60.7 41 2.9 37.1
09:15 1021 30.15 850 25.1 16.6 61.8 40 3.1 37.5
09:20 1021 30.15 850 25.1 17 62.5 40 3.3 37.9
09:25 1021 30.15 850 25.1 17.4 63.2 39 3.5 38.3
09:30 1021 30.15 850 25.1 18 64.4 38 3.5 38.4
09:35 1021 30.15 850 25.1 18.8 65.8 30 1.1 34
09:40 1021 30.15 850 25.1 19.3 66.7 32 2.3 36.2
09:45 1021 30.15 850 25.1 19.9 67.8 33 3.4 38.2
09:50 1021 30.15 850 25.1 20.5 68.9 32 3.3 37.9
09:55 1021 30.15 850 25.1 21 69.8 29 2.3 36.1
10:00 1021 30.15 850 25.1 21.2 70.1 31 3.5 38.3
10:05 1021 30.15 850 25.1 21 69.7 31 3.2 37.8
10:10 1021 30.15 850 25.1 21.3 70.3 30 3.1 37.5
10:15 1021 30.15 850 25.1 22.3 72.2 28 3.2 37.8
10:20 1021 30.15 850 25.1 23 73.3 29 4.2 39.6
10:25 1021 30.15 850 25.1 22.5 72.4 29 3.6 38.4
10:30 1021 30.15 850 25.1 22.3 72.2 29 3.5 38.3
10:35 1021 30.15 850 25.1 22.1 71.8 28 3 37.5
10:40 1021 30.15 850 25.1 22.2 71.9 28 2.8 37
10:45 1021 30.15 850 25.1 22.5 72.4 28 3.1 37.7
10:50 1021 30.15 850 25.1 22.5 72.5 26 2.3 36.1
10:55 1021 30.15 850 25.1 22.1 71.9 28 2.7 36.9
11:00 1021 30.15 850 25.1 22.2 71.9 25 1.3 34.4
11:05 1021 30.15 850 25.1 22.8 73 25 2.1 35.8
11:10 1021 30.15 850 25.1 23.2 73.8 22 0.7 33.3
11:15 1020 30.12 850 25.1 23.5 74.4 25 2.6 36.7
11:20 1020 30.12 850 25.1 23.6 74.4 25 2.6 36.7
11:25 1020 30.12 850 25.1 23.3 74 26 2.9 37.2
11:30 1020 30.12 850 25.1 23.7 74.7 25 3 37.4
11:35 1020 30.12 850 25.1 24 75.2 26 3.5 38.3
11:40 1020 30.12 850 25.1 24.6 76.3 22 1.4 34.6
11:45 1020 30.12 849 25.07 25 77 25 3.6 38.5
11:50 1020 30.12 849 25.07 25.2 77.4 24 3.6 38.5
11:55 1020 30.12 849 25.07 26.1 79 21 2.3 36.1
12:00 1020 30.12 849 25.07 26.6 79.8 20 2 35.6
12:05 1020 30.12 849 25.07 26.4 79.4 20 1.9 35.4
12:10 1020 30.12 849 25.07 26.3 79.3 20 1.5 34.7
12:15 1020 30.12 849 25.07 25.8 78.4 21 1.8 35.2
12:20 1020 30.12 849 25.07 27 80.6 19 1.8 35.2
12:25 1020 30.12 849 25.07 27.6 81.7 20 3.1 37.6
12:30 1020 30.12 849 25.07 26.9 80.4 20 2.2 36
12:35 1020 30.12 849 25.07 27.6 81.6 18 1.7 35.1
12:40 1020 30.12 849 25.07 28.3 82.9 19 2.6 36.6
12:45 1020 30.12 849 25.07 28.3 83 18 2.4 36.3
12:50 1020 30.12 849 25.07 28.4 83.1 19 2.7 36.8
12:55 1019 30.09 849 25.07 28.5 83.3 18 2.4 36.3
13:00 1019 30.09 849 25.07 28.7 83.6 18 2.5 36.4
13:05 1019 30.09 849 25.07 28.8 83.8 20 3.7 38.7
13:10 1019 30.09 848 25.04 27.8 82 21 4 39.2
13:15 1019 30.09 848 25.04 27.3 81.2 20 2.7 36.9
13:20 1019 30.09 848 25.04 27 80.7 21 3 37.4
13:25 1019 30.09 848 25.04 27.4 81.3 18 1.6 34.9
13:30 1019 30.09 848 25.04 28.3 83 19 2.7 36.9
13:35 1019 30.09 848 25.04 29.1 84.3 16 1.4 34.5
13:40 1019 30.09 848 25.04 28.9 84 18 2.2 36
13:45 1019 30.09 848 25.04 29.1 84.5 16 1 33.9
13:50 1019 30.09 848 25.04 29.4 85 15 0.3 32.5
13:55 1019 30.09 848 25.04 29.9 85.9 14 0.3 32.6
14:00 1019 30.09 848 25.04 29.4 85 14 -0.3 31.5
14:05 1019 30.09 848 25.04 29.8 85.6 11 -4.1 24.7
14:10 1018 30.06 848 25.04 29.6 85.2 12 -3 26.6
14:15 1018 30.06 848 25.04 29.7 85.5 10 -4.4 24
14:20 1018 30.06 848 25.04 29.9 85.9 10 -4.9 23.2
14:25 1018 30.06 848 25.04 30.2 86.4 11 -3.8 25.2
14:30 1018 30.06 847 25.01 30.3 86.5 9 -5.4 22.2
14:35 1018 30.06 847 25.01 30.2 86.4 10 -4.1 24.7
14:40 1018 30.06 847 25.01 30.3 86.5 10 -3.8 25.1
14:45 1018 30.06 847 25.01 30.1 86.2 9 -5.5 22.1
14:50 1018 30.06 847 25.01 30.1 86.1 10 -4.9 23.3
14:55 1018 30.06 847 25.01 29.7 85.5 10 -5 23
15:00 1018 30.06 847 25.01 29.7 85.4 10 -4.3 24.3
15:05 1018 30.06 847 25.01 29.4 85 11 -3.7 25.4
15:10 1018 30.06 847 25.01 29.6 85.3 10 -4.4 24.2
15:15 1018 30.06 847 25.01 29.7 85.5 10 -4.4 24.1
15:20 1018 30.06 847 25.01 29.8 85.6 11 -4 24.9
15:25 1018 30.06 847 25.01 29.9 85.8 10 -4.4 24.1
15:30 1018 30.06 847 25.01 29.7 85.5 9 -6.2 20.9
15:35 1018 30.06 847 25.01 29.6 85.3 9 -6.1 21
15:40 1018 30.06 847 25.01 29.3 84.7 9 -6.3 20.7
15:45 1018 30.06 847 25.01 29 84.1 10 -6 21.1
15:50 1018 30.06 847 25.01 28.8 83.8 9 -6.4 20.5
15:55 1018 30.06 847 25.01 28.6 83.4 10 -5.2 22.6
16:00 1018 30.06 847 25.01 28.5 83.2 11 -4.8 23.3
16:05 1018 30.06 848 25.04 28.4 83.2 11 -4.7 23.5
16:10 1018 30.06 847 25.01 28.6 83.4 11 -4.2 24.4
16:15 1018 30.06 847 25.01 28.6 83.4 11 -4.7 23.6
16:20 1018 30.06 848 25.04 28.6 83.4 12 -3.7 25.4
16:25 1018 30.06 848 25.04 28.5 83.3 11 -4.5 23.9
16:30 1018 30.06 848 25.04 28.7 83.7 11 -4 24.7
16:35 1018 30.06 848 25.04 28.9 83.9 11 -3.9 25
16:40 1018 30.06 848 25.04 28.9 84.1 11 -3.9 24.9
16:45 1018 30.06 848 25.04 28.9 84 11 -3.8 25.1
16:50 1018 30.06 848 25.04 29.1 84.4 12 -2.6 27.2
16:55 1018 30.06 848 25.04 29 84.2 12 -3.4 25.8
17:00 1018 30.06 848 25.04 28.9 84 11 -3.6 25.4
17:05 1018 30.06 848 25.04 28.2 82.7 14 -1.5 29.4
17:10 1019 30.09 848 25.04 27.6 81.7 15 -1.5 29.4
17:15 1019 30.09 848 25.04 27.4 81.2 15 -0.9 30.4
17:20 1019 30.09 848 25.04 27.2 80.9 15 -1 30.3
17:25 1019 30.09 848 25.04 26.9 80.4 15 -1.7 29
17:30 1019 30.09 848 25.04 26.6 79.8 16 -0.9 30.3
17:35 1019 30.09 848 25.04 26.3 79.4 16 -1.4 29.4
17:40 1019 30.09 848 25.04 26.1 79 17 -0.8 30.5
17:45 1019 30.09 848 25.04 26 78.7 17 -0.4 31.2
17:50 1019 30.09 848 25.04 25.8 78.5 17 -0.8 30.6
17:55 1019 30.09 848 25.04 25.7 78.2 18 -0.2 31.6
18:00 1019 30.09 848 25.04 25.6 78 18 0.1 32.1
18:05 1019 30.09 848 25.04 25.4 77.7 19 0.6 33
18:10 1019 30.09 848 25.04 25.2 77.4 19 -0.1 31.9
18:15 1019 30.09 848 25.04 25.2 77.4 24 3.3 37.9
18:20 1019 30.09 848 25.04 24 75.1 23 2.1 35.7
18:25 1019 30.09 848 25.04 23.6 74.4 21 0.3 32.6
18:30 1019 30.09 848 25.04 24.2 75.6 21 0.6 33.1
18:35 1019 30.09 848 25.04 24.5 76.1 21 0.7 33.2
18:40 1019 30.09 848 25.04 24.5 76.1 21 1.3 34.3
18:45 1019 30.09 848 25.04 24.4 75.9 20 0.5 32.8
18:50 1019 30.09 848 25.04 24.1 75.4 21 0.9 33.7
18:55 1019 30.09 848 25.04 23.3 73.9 21 0.1 32.2
19:00 1019 30.09 848 25.04 23 73.5 21 -0.4 31.3
19:05 1019 30.09 848 25.04 23.2 73.7 24 1.7 35.1
19:10 1019 30.09 849 25.07 22.9 73.2 23 1.1 34
19:15 1019 30.09 849 25.07 22.4 72.4 24 1.1 34.1
19:20 1019 30.09 849 25.07 22.3 72.1 28 3 37.5
19:25 1020 30.12 849 25.07 21.9 71.5 26 1.8 35.2
19:30 1020 30.12 849 25.07 21.7 71.1 21 -1.4 29.4
19:35 1020 30.12 849 25.07 22.1 71.7 23 0.2 32.4
19:40 1020 30.12 849 25.07 21.6 70.9 23 -0.3 31.5
19:45 1020 30.12 849 25.07 21.3 70.3 24 -0.2 31.6
19:50 1020 30.12 849 25.07 21.2 70.2 24 -0.1 31.9
19:55 1020 30.12 849 25.07 21.1 70 24 -0 31.9
20:00 1020 30.12 849 25.07 21 69.7 24 0.1 32.1
20:05 1020 30.12 849 25.07 20.7 69.3 25 0.1 32.2
20:10 1020 30.12 849 25.07 20.4 68.7 26 0.3 32.6
20:15 1020 30.12 849 25.07 19.9 67.8 27 0.3 32.6
20:20 1020 30.12 849 25.07 19.6 67.2 28 1 33.7
20:25 1020 30.12 849 25.07 18.9 66.1 30 1 33.8
20:30 1020 30.12 849 25.07 18.6 65.4 28 -0.1 31.9
20:35 1020 30.12 849 25.07 19 66.3 27 -0 32
20:40 1020 30.12 850 25.1 19.4 67 26 -0.5 31.1
20:45 1020 30.12 850 25.1 19.7 67.5 26 -0.2 31.7
20:50 1021 30.15 850 25.1 19.7 67.4 28 0.6 33.1
20:55 1021 30.15 850 25.1 18.7 65.7 30 1.2 34.1
21:00 1021 30.15 850 25.1 17.6 63.6 32 0.8 33.5
21:05 1021 30.15 850 25.1 17.1 62.9 33 0.7 33.2
21:10 1021 30.15 850 25.1 17.1 62.7 32 0.4 32.7
21:15 1021 30.15 850 25.1 17.1 62.7 32 0.5 32.8
21:20 1021 30.15 850 25.1 17.1 62.7 31 -0.1 31.8
21:25 1021 30.15 850 25.1 17.3 63.2 30 -0.3 31.5
21:30 1021 30.15 851 25.13 17.7 63.8 33 1.2 34.1
21:35 1021 30.15 851 25.13 17.5 63.5 33 1.4 34.5
21:40 1022 30.18 851 25.13 17.1 62.7 33 0.9 33.6
21:45 1022 30.18 851 25.13 16.8 62.2 37 2.1 35.8
21:50 1022 30.18 851 25.13 15.9 60.7 40 2.6 36.7
21:55 1022 30.18 851 25.13 16.1 61 33 -0.3 31.5
22:00 1022 30.18 851 25.13 16.9 62.4 31 -0.2 31.6
22:05 1022 30.18 851 25.13 16.7 62.1 39 2.7 36.9
22:10 1022 30.18 851 25.13 16.1 60.9 36 1 33.8
22:15 1022 30.18 851 25.13 15.8 60.4 39 1.9 35.4
22:20 1022 30.18 851 25.13 15.7 60.3 36 0.8 33.4
22:25 1022 30.18 851 25.13 15.8 60.5 36 1 33.7
22:30 1022 30.18 851 25.13 16 60.9 38 1.7 35.1
22:35 1022 30.18 851 25.13 15.8 60.4 37 1.3 34.4
22:40 1022 30.18 852 25.16 14.9 58.8 40 1.7 35
22:45 1022 30.18 852 25.16 14.9 58.9 37 0.5 32.9
22:50 1022 30.18 852 25.16 15.5 59.9 40 2.2 35.9
22:55 1022 30.18 852 25.16 16.2 61.2 40 2.9 37.2
23:00 1023 30.21 852 25.16 16.2 61.2 37 1.7 35
23:05 1023 30.21 852 25.16 16.1 61 35 0.6 33
23:10 1023 30.21 852 25.16 15.7 60.3 36 0.8 33.4
23:15 1023 30.21 852 25.16 15.7 60.3 35 0.3 32.6
23:20 1023 30.21 852 25.16 15.9 60.7 37 1.5 34.8
23:25 1023 30.21 852 25.16 15.6 60 36 0.7 33.2
23:30 1023 30.21 852 25.16 15.1 59.2 38 1.1 34
23:35 1023 30.21 852 25.16 14.7 58.4 41 1.8 35.2
23:40 1023 30.21 852 25.16 14.7 58.5 42 1.9 35.4
23:45 1023 30.21 852 25.16 14.9 58.8 35 -0.2 31.7
23:50 1023 30.21 852 25.16 15.4 59.8 34 -0.1 31.9
23:55 1023 30.21 852 25.16 15.3 59.5 36 0.6 33
24:00 1023 30.21 852 25.16 14.8 58.6 37 0.3 32.5